createdAt,value
2023-04-29T00:02:13.725Z,100599.03
2023-04-29T00:05:19.413Z,100603.78
2023-04-29T00:08:23.027Z,100601.50
2023-04-29T00:11:25.842Z,100592.38
2023-04-29T00:14:28.760Z,100588.63
2023-04-29T00:17:31.566Z,100584.03
2023-04-29T00:20:34.485Z,100587.88
2023-04-29T00:23:37.377Z,100577.69
2023-04-29T00:26:41.445Z,100583.91
2023-04-29T00:29:44.700Z,100583.47
2023-04-29T00:32:47.913Z,100583.97
2023-04-29T00:35:51.032Z,100576.69
2023-04-29T00:38:53.832Z,100581.78
2023-04-29T00:41:57.074Z,100574.91
2023-04-29T00:45:00.171Z,100579.47
2023-04-29T00:48:03.375Z,100582.28
2023-04-29T00:51:07.817Z,100574.28
2023-04-29T00:54:11.852Z,100571.78
2023-04-29T00:57:15.417Z,100577.31
2023-04-29T01:00:19.530Z,100565.34
2023-04-29T01:03:23.093Z,100568.06
2023-04-29T01:06:26.202Z,100562.59
2023-04-29T01:09:39.369Z,100565.84
2023-04-29T01:12:47.305Z,100551.97
2023-04-29T01:15:56.054Z,100555.50
2023-04-29T01:19:02.892Z,100560.59
2023-04-29T01:22:09.765Z,100568.84
2023-04-29T01:25:13.132Z,100573.34
2023-04-29T01:29:19.143Z,100581.06
2023-04-29T01:32:43.100Z,100573.25
2023-04-29T01:36:16.800Z,100571.84
2023-04-29T01:39:41.985Z,100572.28
2023-04-29T01:42:59.117Z,100567.84
2023-04-29T01:46:05.728Z,100569.09
2023-04-29T01:49:09.328Z,100558.88
2023-04-29T01:52:13.451Z,100566.28
2023-04-29T01:55:18.857Z,100574.00
2023-04-29T01:58:44.739Z,100566.66
2023-04-29T02:02:07.630Z,100565.84
2023-04-29T02:05:13.975Z,100562.19
2023-04-29T02:08:21.329Z,100566.16
2023-04-29T02:11:24.504Z,100564.56
2023-04-29T02:14:31.818Z,100565.78
2023-04-29T02:17:34.838Z,100568.06
2023-04-29T02:20:37.786Z,100569.09
2023-04-29T02:23:42.791Z,100568.06
2023-04-29T02:26:54.542Z,100571.41
2023-04-29T02:29:57.349Z,100576.59
2023-04-29T02:33:01.244Z,100573.72
2023-04-29T02:36:04.400Z,100568.91
2023-04-29T02:39:07.734Z,100567.50
2023-04-29T02:42:10.722Z,100567.50
2023-04-29T02:45:13.504Z,100577.31
2023-04-29T02:48:16.668Z,100563.66
2023-04-29T02:51:20.094Z,100571.22
2023-04-29T02:54:23.372Z,100566.28
2023-04-29T02:57:26.317Z,100576.09
2023-04-29T03:00:29.192Z,100561.41
2023-04-29T03:03:32.472Z,100558.19
2023-04-29T03:06:35.444Z,100567.53
2023-04-29T03:09:38.604Z,100574.50
2023-04-29T03:12:41.402Z,100562.19
2023-04-29T03:15:44.462Z,100560.31
2023-04-29T03:18:47.210Z,100560.31
2023-04-29T03:21:52.195Z,100562.78
2023-04-29T03:24:57.266Z,100556.44
2023-04-29T03:28:00.092Z,100554.81
2023-04-29T03:31:03.289Z,100560.13
2023-04-29T03:34:06.716Z,100560.56
2023-04-29T03:37:13.163Z,100564.63
2023-04-29T03:40:21.050Z,100565.63
2023-04-29T03:43:24.967Z,100568.91
2023-04-29T03:46:28.220Z,100577.25
2023-04-29T03:49:31.187Z,100579.28
2023-04-29T03:52:36.670Z,100572.75
2023-04-29T03:55:45.722Z,100576.38
2023-04-29T03:58:49.181Z,100587.59
2023-04-29T04:01:54.600Z,100586.19
2023-04-29T04:04:59.151Z,100585.41
2023-04-29T04:08:02.173Z,100588.31
2023-04-29T04:11:34.285Z,100602.00
2023-04-29T04:14:39.187Z,100608.34
2023-04-29T04:17:42.063Z,100601.84
2023-04-29T04:20:45.011Z,100608.19
2023-04-29T04:23:48.037Z,100614.28
2023-04-29T04:26:56.045Z,100618.59
2023-04-29T04:30:08.281Z,100630.00
2023-04-29T04:33:11.120Z,100628.59
2023-04-29T04:36:15.710Z,100626.53
2023-04-29T04:39:19.169Z,100640.03
2023-04-29T04:42:23.636Z,100634.47
2023-04-29T04:45:31.429Z,100631.34
2023-04-29T04:48:35.007Z,100626.16
2023-04-29T04:51:47.502Z,100615.69
2023-04-29T04:54:50.480Z,100607.34
2023-04-29T04:57:58.841Z,100596.00
2023-04-29T05:01:02.842Z,100601.31
2023-04-29T05:04:06.147Z,100602.78
2023-04-29T05:07:09.261Z,100607.31
2023-04-29T05:10:33.472Z,100603.88
2023-04-29T05:13:38.086Z,100593.13
2023-04-29T05:16:41.015Z,100595.50
2023-04-29T05:19:44.482Z,100585.28
2023-04-29T05:22:47.993Z,100584.28
2023-04-29T05:25:51.378Z,100586.41
2023-04-29T05:28:55.530Z,100582.84
2023-04-29T05:31:59.063Z,100595.13
2023-04-29T05:35:02.723Z,100588.22
2023-04-29T05:38:06.305Z,100598.22
2023-04-29T05:41:14.368Z,100601.53
2023-04-29T05:44:50.591Z,100601.22
2023-04-29T05:47:53.343Z,100608.53
2023-04-29T05:50:56.453Z,100611.56
2023-04-29T05:54:00.514Z,100610.25
2023-04-29T05:57:05.596Z,100611.91
2023-04-29T06:00:09.046Z,100607.25
2023-04-29T06:03:17.176Z,100600.66
2023-04-29T06:06:20.650Z,100608.97
2023-04-29T06:09:37.607Z,100604.00
2023-04-29T06:12:40.513Z,100600.28
2023-04-29T06:15:43.346Z,100599.53
2023-04-29T06:18:46.133Z,100604.84
2023-04-29T06:21:50.668Z,100605.03
2023-04-29T06:24:53.670Z,100604.50
2023-04-29T06:28:04.568Z,100601.44
2023-04-29T06:31:08.440Z,100602.88
2023-04-29T06:34:13.303Z,100600.22
2023-04-29T06:37:40.513Z,100598.41
2023-04-29T06:40:49.548Z,100597.47
2023-04-29T06:44:22.004Z,100599.06
2023-04-29T06:47:28.285Z,100592.59
2023-04-29T06:50:52.714Z,100590.16
2023-04-29T06:53:55.824Z,100591.41
2023-04-29T06:56:58.644Z,100598.47
2023-04-29T07:00:01.470Z,100582.44
2023-04-29T07:03:04.531Z,100588.13
2023-04-29T07:06:07.789Z,100583.31
2023-04-29T07:09:10.715Z,100584.69
2023-04-29T07:12:13.709Z,100583.25
2023-04-29T07:15:16.575Z,100589.63
2023-04-29T07:18:19.578Z,100576.22
2023-04-29T07:21:22.457Z,100576.84
2023-04-29T07:24:25.535Z,100561.31
2023-04-29T07:27:28.774Z,100564.69
2023-04-29T07:30:31.654Z,100562.88
2023-04-29T07:33:35.786Z,100549.34
2023-04-29T07:36:38.756Z,100554.59
2023-04-29T07:39:42.843Z,100556.16
2023-04-29T07:42:46.766Z,100561.75
2023-04-29T07:45:49.678Z,100569.81
2023-04-29T07:48:53.260Z,100576.84
2023-04-29T07:51:56.123Z,100575.25
2023-04-29T07:54:59.100Z,100589.72
2023-04-29T07:58:01.929Z,100584.28
2023-04-29T08:01:12.488Z,100582.91
2023-04-29T08:04:16.569Z,100588.06
2023-04-29T08:07:25.824Z,100583.91
2023-04-29T08:10:29.372Z,100584.22
2023-04-29T08:13:32.311Z,100572.22
2023-04-29T08:16:35.363Z,100582.72
2023-04-29T08:19:38.554Z,100584.97
2023-04-29T08:22:41.586Z,100575.38
2023-04-29T08:25:44.439Z,100578.66
2023-04-29T08:28:47.384Z,100581.97
2023-04-29T08:31:50.890Z,100588.78
2023-04-29T08:34:53.944Z,100584.69
2023-04-29T08:37:56.827Z,100585.41
2023-04-29T08:40:59.666Z,100586.41
2023-04-29T08:44:03.670Z,100585.34
2023-04-29T08:47:07.411Z,100588.41
2023-04-29T08:50:10.374Z,100584.16
2023-04-29T08:53:14.730Z,100587.84
2023-04-29T08:56:20.814Z,100583.41
2023-04-29T08:59:24.302Z,100595.81
2023-04-29T09:02:27.798Z,100595.81
2023-04-29T09:05:31.974Z,100595.06
2023-04-29T09:08:34.961Z,100599.78
2023-04-29T09:11:42.410Z,100589.88
2023-04-29T09:14:45.388Z,100588.47
2023-04-29T09:17:49.389Z,100588.69
2023-04-29T09:20:52.129Z,100588.00
2023-04-29T09:23:56.419Z,100587.13
2023-04-29T09:27:00.430Z,100588.06
2023-04-29T09:30:03.426Z,100577.44
2023-04-29T09:33:10.025Z,100586.09
2023-04-29T09:36:12.954Z,100579.38
2023-04-29T09:39:19.509Z,100584.16
2023-04-29T09:42:25.180Z,100583.13
2023-04-29T09:45:38.546Z,100576.53
2023-04-29T09:49:26.416Z,100577.50
2023-04-29T09:52:42.550Z,100574.63
2023-04-29T09:55:54.404Z,100576.13
2023-04-29T09:59:47.861Z,100567.09
2023-04-29T10:02:51.884Z,100568.47
2023-04-29T10:05:55.578Z,100568.41
2023-04-29T10:08:58.728Z,100561.22
2023-04-29T10:12:02.672Z,100557.47
2023-04-29T10:15:44.228Z,100551.53
2023-04-29T10:18:54.431Z,100543.97
2023-04-29T10:22:00.852Z,100546.13
2023-04-29T10:25:07.816Z,100541.84
2023-04-29T10:28:17.062Z,100533.97
2023-04-29T10:31:20.532Z,100521.06
2023-04-29T10:34:24.632Z,100514.56
2023-04-29T10:37:28.020Z,100515.56
2023-04-29T10:40:54.401Z,100512.97
2023-04-29T10:43:59.829Z,100503.03
2023-04-29T10:47:21.687Z,100495.94
2023-04-29T10:50:28.065Z,100497.59
2023-04-29T10:53:31.002Z,100488.41
2023-04-29T10:56:51.340Z,100485.06
2023-04-29T10:59:54.183Z,100483.34
2023-04-29T11:03:02.364Z,100493.84
2023-04-29T11:06:11.754Z,100485.81
2023-04-29T11:09:37.400Z,100490.28
2023-04-29T11:12:40.629Z,100480.38
2023-04-29T11:15:43.673Z,100475.81
2023-04-29T11:19:05.199Z,100484.88
2023-04-29T11:22:15.254Z,100471.84
2023-04-29T11:25:19.060Z,100472.47
2023-04-29T11:28:24.188Z,100465.97
2023-04-29T11:31:30.817Z,100448.72
2023-04-29T11:34:34.308Z,100451.19
2023-04-29T11:37:37.390Z,100444.50
2023-04-29T11:40:49.431Z,100453.69
2023-04-29T11:43:57.785Z,100451.41
2023-04-29T11:47:04.698Z,100440.25
2023-04-29T11:50:10.453Z,100447.81
2023-04-29T11:53:13.641Z,100438.97
2023-04-29T11:56:16.604Z,100438.94
2023-04-29T11:59:20.046Z,100441.81
2023-04-29T12:02:24.118Z,100441.66
2023-04-29T12:05:27.604Z,100442.41
2023-04-29T12:08:31.264Z,100447.81
2023-04-29T12:11:34.401Z,100429.56
2023-04-29T12:14:38.421Z,100442.38
2023-04-29T12:17:42.670Z,100442.47
2023-04-29T12:20:48.303Z,100430.22
2023-04-29T12:23:51.783Z,100426.91
2023-04-29T12:26:56.260Z,100425.34
2023-04-29T12:29:59.116Z,100419.28
2023-04-29T12:33:02.850Z,100422.31
2023-04-29T12:36:17.809Z,100422.09
2023-04-29T12:39:21.387Z,100422.81
2023-04-29T12:42:24.197Z,100420.53
2023-04-29T12:45:34.596Z,100424.19
2023-04-29T12:48:39.315Z,100425.63
2023-04-29T12:51:42.709Z,100419.66
2023-04-29T12:54:45.998Z,100412.28
2023-04-29T12:57:48.801Z,100418.97
2023-04-29T13:00:51.741Z,100413.41
2023-04-29T13:03:54.908Z,100409.28
2023-04-29T13:07:01.077Z,100411.59
2023-04-29T13:10:06.509Z,100409.00
2023-04-29T13:13:12.069Z,100409.19
2023-04-29T13:16:14.948Z,100413.13
2023-04-29T13:19:28.219Z,100401.06
2023-04-29T13:22:37.678Z,100396.91
2023-04-29T13:25:40.979Z,100400.44
2023-04-29T13:28:44.327Z,100388.53
2023-04-29T13:31:47.342Z,100398.38
2023-04-29T13:34:51.683Z,100384.13
2023-04-29T13:37:54.633Z,100380.25
2023-04-29T13:40:57.777Z,100376.63
2023-04-29T13:44:02.006Z,100381.22
2023-04-29T13:47:06.499Z,100377.94
2023-04-29T13:50:47.173Z,100369.00
2023-04-29T13:54:20.459Z,100363.38
2023-04-29T13:57:40.115Z,100367.59
2023-04-29T14:03:24.354Z,100361.75
2023-04-29T14:06:28.510Z,100359.66
2023-04-29T14:09:31.586Z,100372.00
2023-04-29T14:12:34.998Z,100369.03
2023-04-29T14:15:38.046Z,100363.72
2023-04-29T14:18:41.187Z,100361.41
2023-04-29T14:21:44.147Z,100360.28
2023-04-29T14:24:47.139Z,100354.78
2023-04-29T14:27:50.032Z,100364.03
2023-04-29T14:30:52.917Z,100355.38
2023-04-29T14:33:56.553Z,100355.53
2023-04-29T14:36:59.341Z,100356.31
2023-04-29T14:40:02.155Z,100356.19
2023-04-29T14:43:05.315Z,100357.03
2023-04-29T14:46:08.422Z,100353.03
2023-04-29T14:49:11.278Z,100361.50
2023-04-29T14:52:14.517Z,100351.28
2023-04-29T14:55:17.512Z,100346.78
2023-04-29T14:58:20.973Z,100364.00
2023-04-29T15:01:23.867Z,100357.13
2023-04-29T15:04:27.749Z,100349.31
2023-04-29T15:07:31.883Z,100353.25
2023-04-29T15:10:35.019Z,100360.66
2023-04-29T15:13:37.932Z,100358.13
2023-04-29T15:16:40.927Z,100365.63
2023-04-29T15:19:43.764Z,100373.19
2023-04-29T15:22:47.799Z,100363.06
2023-04-29T15:25:50.799Z,100367.84
2023-04-29T15:28:53.961Z,100366.94
2023-04-29T15:31:56.772Z,100361.28
2023-04-29T15:35:00.561Z,100366.28
2023-04-29T15:38:03.413Z,100372.19
2023-04-29T15:41:06.960Z,100372.88
2023-04-29T15:44:09.701Z,100368.66
2023-04-29T15:47:12.481Z,100375.44
2023-04-29T15:50:15.639Z,100371.97
2023-04-29T15:53:18.391Z,100382.06
2023-04-29T15:56:21.157Z,100371.13
2023-04-29T15:59:24.231Z,100381.25
2023-04-29T16:02:27.144Z,100376.47
2023-04-29T16:05:31.762Z,100377.78
2023-04-29T16:08:34.568Z,100381.94
2023-04-29T16:11:37.385Z,100381.00
2023-04-29T16:14:40.434Z,100375.69
2023-04-29T16:17:43.302Z,100382.25
2023-04-29T16:20:46.116Z,100374.06
2023-04-29T16:23:49.114Z,100378.06
2023-04-29T16:26:51.964Z,100379.38
2023-04-29T16:29:55.968Z,100375.38
2023-04-29T16:32:58.931Z,100367.19
2023-04-29T16:36:03.161Z,100377.28
2023-04-29T16:39:06.399Z,100373.72
2023-04-29T16:42:09.545Z,100379.41
2023-04-29T16:45:13.250Z,100372.97
2023-04-29T16:48:16.634Z,100369.22
2023-04-29T16:51:19.396Z,100371.03
2023-04-29T16:54:23.345Z,100384.31
2023-04-29T16:57:26.707Z,100376.84
2023-04-29T17:00:29.794Z,100373.44
2023-04-29T17:03:32.923Z,100387.16
2023-04-29T17:06:37.331Z,100389.34
2023-04-29T17:09:40.822Z,100388.78
2023-04-29T17:12:44.607Z,100393.16
2023-04-29T17:15:47.975Z,100393.72
2023-04-29T17:18:50.812Z,100387.88
2023-04-29T17:21:53.663Z,100396.19
2023-04-29T17:24:56.387Z,100394.88
2023-04-29T17:27:59.773Z,100395.44
2023-04-29T17:31:02.638Z,100401.09
2023-04-29T17:34:16.705Z,100400.50
2023-04-29T17:37:25.009Z,100408.06
2023-04-29T17:40:28.082Z,100411.81
2023-04-29T17:43:33.394Z,100409.88
2023-04-29T17:46:37.021Z,100413.59
2023-04-29T17:49:39.839Z,100411.94
2023-04-29T17:52:43.016Z,100415.66
2023-04-29T17:55:46.377Z,100413.97
2023-04-29T17:58:49.184Z,100417.38
2023-04-29T18:01:52.553Z,100418.84
2023-04-29T18:04:56.178Z,100418.47
2023-04-29T18:07:59.015Z,100423.19
2023-04-29T18:11:02.506Z,100421.22
2023-04-29T18:14:05.271Z,100417.91
2023-04-29T18:17:08.598Z,100417.53
2023-04-29T18:20:13.050Z,100424.91
2023-04-29T18:23:15.984Z,100426.13
2023-04-29T18:26:19.009Z,100439.91
2023-04-29T18:29:21.818Z,100432.00
2023-04-29T18:32:24.634Z,100436.19
2023-04-29T18:35:28.547Z,100442.56
2023-04-29T18:38:31.376Z,100450.94
2023-04-29T18:41:34.142Z,100451.66
2023-04-29T18:44:37.096Z,100452.44
2023-04-29T18:47:39.914Z,100467.44
2023-04-29T18:50:43.189Z,100461.47
2023-04-29T18:53:46.268Z,100466.59
2023-04-29T18:56:50.247Z,100471.41
2023-04-29T18:59:54.610Z,100475.69
2023-04-29T19:02:57.920Z,100469.38
2023-04-29T19:06:01.227Z,100470.50
2023-04-29T19:09:04.418Z,100466.94
2023-04-29T19:12:08.660Z,100467.09
2023-04-29T19:15:12.052Z,100469.13
2023-04-29T19:18:14.894Z,100465.03
2023-04-29T19:21:18.589Z,100470.88
2023-04-29T19:24:21.525Z,100484.91
2023-04-29T19:27:24.360Z,100488.38
2023-04-29T19:30:27.445Z,100490.00
2023-04-29T19:33:31.099Z,100490.50
2023-04-29T19:36:34.416Z,100485.53
2023-04-29T19:39:37.290Z,100496.88
2023-04-29T19:42:40.988Z,100485.69
2023-04-29T19:45:43.896Z,100485.50
2023-04-29T19:48:46.871Z,100489.34
2023-04-29T19:51:51.855Z,100475.94
2023-04-29T19:54:57.738Z,100492.72
2023-04-29T19:58:00.823Z,100479.81
2023-04-29T20:01:03.880Z,100495.03
2023-04-29T20:04:07.065Z,100492.25
2023-04-29T20:07:10.063Z,100497.13
2023-04-29T20:10:12.950Z,100498.78
2023-04-29T20:13:16.291Z,100503.97
2023-04-29T20:16:19.153Z,100503.06
2023-04-29T20:19:22.201Z,100510.75
2023-04-29T20:22:25.165Z,100509.59
2023-04-29T20:25:28.655Z,100501.59
2023-04-29T20:28:31.690Z,100512.59
2023-04-29T20:31:35.161Z,100509.13
2023-04-29T20:34:38.463Z,100508.44
2023-04-29T20:37:59.037Z,100512.63
2023-04-29T20:41:37.332Z,100510.31
2023-04-29T20:44:40.112Z,100511.22
2023-04-29T20:47:44.129Z,100514.22
2023-04-29T20:50:50.919Z,100515.97
2023-04-29T20:53:53.928Z,100520.13
2023-04-29T20:56:56.857Z,100516.66
2023-04-29T21:00:05.297Z,100517.59
2023-04-29T21:03:10.938Z,100517.78
2023-04-29T21:06:13.896Z,100524.38
2023-04-29T21:09:17.920Z,100517.91
2023-04-29T21:12:20.837Z,100524.00
2023-04-29T21:15:27.069Z,100518.56
2023-04-29T21:18:30.088Z,100522.59
2023-04-29T21:21:32.949Z,100524.16
2023-04-29T21:24:35.795Z,100521.13
2023-04-29T21:27:38.760Z,100530.97
2023-04-29T21:30:41.708Z,100525.72
2023-04-29T21:33:44.715Z,100529.72
2023-04-29T21:36:47.536Z,100520.19
2023-04-29T21:39:50.975Z,100523.81
2023-04-29T21:42:55.456Z,100532.09
2023-04-29T21:45:58.347Z,100538.22
2023-04-29T21:49:03.355Z,100535.94
2023-04-29T21:52:06.249Z,100528.84
2023-04-29T21:55:09.536Z,100533.34
2023-04-29T21:58:12.365Z,100540.06
2023-04-29T22:01:39.528Z,100544.38
2023-04-29T22:04:42.808Z,100550.19
2023-04-29T22:07:46.295Z,100551.16
2023-04-29T22:10:49.207Z,100554.66
2023-04-29T22:13:52.130Z,100551.47
2023-04-29T22:16:55.059Z,100554.03
2023-04-29T22:19:58.033Z,100556.78
2023-04-29T22:23:01.062Z,100549.91
2023-04-29T22:26:03.857Z,100552.63
2023-04-29T22:29:06.765Z,100553.91
2023-04-29T22:32:09.572Z,100553.13
2023-04-29T22:35:12.548Z,100554.34
2023-04-29T22:38:17.835Z,100552.56
2023-04-29T22:41:21.938Z,100559.13
2023-04-29T22:44:26.313Z,100554.06
2023-04-29T22:47:29.328Z,100564.31
2023-04-29T22:50:32.135Z,100555.78
2023-04-29T22:53:34.936Z,100548.44
2023-04-29T22:56:37.817Z,100552.75
2023-04-29T22:59:40.739Z,100551.97
2023-04-29T23:02:44.181Z,100558.47
2023-04-29T23:05:47.119Z,100562.91
2023-04-29T23:08:49.997Z,100558.63
2023-04-29T23:11:53.426Z,100566.09
2023-04-29T23:14:56.862Z,100565.34
2023-04-29T23:17:59.921Z,100563.94
2023-04-29T23:21:02.940Z,100570.69
2023-04-29T23:24:05.950Z,100566.16
2023-04-29T23:27:08.806Z,100570.41
2023-04-29T23:30:11.732Z,100572.28
2023-04-29T23:33:15.206Z,100569.63
2023-04-29T23:36:18.172Z,100578.84
2023-04-29T23:39:21.132Z,100571.91
2023-04-29T23:42:23.943Z,100575.84
2023-04-29T23:45:27.056Z,100577.69
2023-04-29T23:48:29.802Z,100576.31
2023-04-29T23:51:33.154Z,100573.47
2023-04-29T23:54:36.317Z,100574.56
2023-04-29T23:57:39.184Z,100577.63
